KLVM/LVM METAR and TAF weather

Enter ICAO airport designator
Station Type Date Time Source
KLVM METAR 2021/02/25 01:53 UTC NOAA

KLVM 250153Z AUTO 23011KT 10SM CLR M05/M12 A3029 RMK AO2 SLP311 T10501117


Station Type Date Time Source
KLVM Decoded METAR 2021/02/25 01:53 UTC NOAA

LIVINGSTON MISSION FIELD, MT, United States (KLVM) 45-42N 110-26W 1418M
Feb 24, 2021 - 08:53 PM EST / 2021.02.25 0153 UTC
Wind: from the SW (230 degrees) at 13 MPH (11 KT):0
Visibility: 10 mile(s):0
Sky conditions: clear
Temperature: 23.0 F (-5.0 C)
Windchill: 10 F (-12 C):1
Dew Point: 10.9 F (-11.7 C)
Relative Humidity: 59%
Pressure (altimeter): 30.29 in. Hg (1025 hPa)
ob: KLVM 250153Z AUTO 23011KT 10SM CLR M05/M12 A3029 RMK AO2 SLP311 T10501117
cycle: 2

Station Type Date Time Source
KLVM TAF 2021/02/24 18:27 UTC NOAA

TAF KLVM 241725Z 2418/2518 28010KT P6SM VCSH OVC050
TEMPO 2418/2422 2SM -SHSN BR OVC025
FM242300 28010KT P6SM BKN050
FM250300 23014G23KT P6SM SKC
FM251300 22035G50KT P6SM FEW250

Example: see airport list